Time;durP1;ratioP1;P1;durP2;ratioP2;P2;SDS_P1;SDS_P2;PMS_P1;PMS_P2;Temp;Humidity;BMP_temperature;BMP_pressure;BME280_temperature;BME280_humidity;BME280_pressure;Samples;Min_cycle;Max_cycle;Signal;HPM_P1;HPM_P2
2022/10/25 00:00:52;;;;;;;19.40;12.02;;;12.70;99.90;;;;;;5136273;27;20058;-80
2022/10/25 00:03:18;;;;;;;19.13;12.32;;;12.70;99.90;;;;;;5128873;28;20471;-80
2022/10/25 00:05:43;;;;;;;18.98;11.40;;;12.70;99.90;;;;;;5125187;27;20078;-82
2022/10/25 00:08:09;;;;;;;18.58;11.93;;;12.70;99.90;;;;;;5118542;27;20039;-80
2022/10/25 00:10:36;;;;;;;21.98;12.13;;;12.70;99.90;;;;;;5153721;27;20038;-80
2022/10/25 00:13:02;;;;;;;21.30;10.88;;;12.70;99.90;;;;;;5130176;27;20051;-80
2022/10/25 00:15:27;;;;;;;18.45;10.68;;;12.60;99.90;;;;;;5153518;27;20136;-80
2022/10/25 00:17:53;;;;;;;19.15;11.00;;;12.60;99.90;;;;;;5119836;27;20092;-81
2022/10/25 00:20:19;;;;;;;18.50;11.10;;;12.60;99.90;;;;;;5137371;27;20039;-80
2022/10/25 00:22:45;;;;;;;16.08;9.85;;;12.60;99.90;;;;;;5102821;27;20035;-80
2022/10/25 00:25:11;;;;;;;15.18;10.10;;;12.60;99.90;;;;;;5153474;27;20043;-80
2022/10/25 00:27:37;;;;;;;13.73;9.23;;;12.60;99.90;;;;;;5128522;27;20034;-81
2022/10/25 00:30:04;;;;;;;15.93;9.32;;;12.60;99.90;;;;;;5137386;27;20046;-80
2022/10/25 00:32:30;;;;;;;15.23;9.38;;;12.60;99.90;;;;;;5155469;27;20034;-80
2022/10/25 00:34:55;;;;;;;17.63;9.68;;;12.60;99.90;;;;;;5153228;27;20041;-80
2022/10/25 00:37:21;;;;;;;18.65;10.35;;;12.60;99.90;;;;;;5118613;27;20043;-80
2022/10/25 00:39:47;;;;;;;14.27;9.27;;;12.60;99.90;;;;;;5134976;27;20060;-80
2022/10/25 00:42:18;;;;;;;16.60;9.50;;;12.60;99.90;;;;;;5153209;27;20165;-81
2022/10/25 00:44:50;;;;;;;14.73;9.13;;;12.70;99.90;;;;;;5139377;27;20110;-80
2022/10/25 00:47:19;;;;;;;26.55;9.57;;;12.70;99.90;;;;;;5139333;27;20398;-81
2022/10/25 00:49:48;;;;;;;17.77;9.48;;;12.70;99.90;;;;;;5157109;27;20094;-80
2022/10/25 00:52:14;;;;;;;13.77;8.40;;;12.70;99.90;;;;;;5139390;27;20074;-80
2022/10/25 00:54:48;;;;;;;15.65;8.65;;;12.70;99.90;;;;;;5113126;27;20066;-81
2022/10/25 00:57:24;;;;;;;15.25;8.95;;;12.70;99.90;;;;;;5138764;27;20042;-81
2022/10/25 00:59:50;;;;;;;15.18;8.57;;;12.80;99.90;;;;;;5138134;27;20078;-81
2022/10/25 01:02:18;;;;;;;19.15;8.90;;;12.80;99.90;;;;;;5138094;27;20118;-81
2022/10/25 01:04:45;;;;;;;18.35;8.98;;;12.80;99.90;;;;;;5126147;27;20042;-80
2022/10/25 01:07:11;;;;;;;12.35;7.97;;;12.90;99.90;;;;;;5121869;27;20179;-80
2022/10/25 01:09:38;;;;;;;18.23;8.98;;;12.90;99.90;;;;;;5121843;27;20526;-80
2022/10/25 01:12:04;;;;;;;14.63;8.15;;;12.90;99.90;;;;;;5138116;27;20046;-80
2022/10/25 01:14:32;;;;;;;15.95;7.97;;;12.90;99.90;;;;;;5102814;27;20166;-80
2022/10/25 01:17:13;;;;;;;15.02;8.25;;;12.90;99.90;;;;;;5155922;27;20034;-80
2022/10/25 01:19:43;;;;;;;15.02;8.18;;;12.90;99.90;;;;;;5137511;27;20035;-80
2022/10/25 01:22:41;;;;;;;14.65;8.10;;;13.00;99.90;;;;;;5138935;27;20409;-81
2022/10/25 01:25:16;;;;;;;18.67;8.05;;;13.00;99.90;;;;;;5134405;27;20471;-80
2022/10/25 01:27:57;;;;;;;12.73;7.85;;;13.00;99.90;;;;;;5137309;27;20494;-80
2022/10/25 01:30:25;;;;;;;15.52;8.10;;;12.90;99.90;;;;;;5124749;27;20483;-80
2022/10/25 01:33:04;;;;;;;17.73;8.13;;;12.90;99.90;;;;;;5156102;27;20367;-81
2022/10/25 01:35:51;;;;;;;17.27;8.40;;;12.90;99.90;;;;;;5139075;27;20038;-80
2022/10/25 01:38:38;;;;;;;13.45;8.18;;;13.00;99.90;;;;;;5155819;27;20477;-80
2022/10/25 01:41:15;;;;;;;15.90;8.07;;;13.00;99.90;;;;;;5138766;27;20395;-81
2022/10/25 01:44:10;;;;;;;15.05;8.38;;;13.00;99.90;;;;;;5137559;27;20066;-81
2022/10/25 01:46:48;;;;;;;18.13;8.57;;;13.00;99.90;;;;;;5128538;27;20047;-80
2022/10/25 01:49:23;;;;;;;15.02;7.82;;;13.00;99.90;;;;;;5155007;27;20042;-80
2022/10/25 01:51:49;;;;;;;14.30;8.20;;;13.00;99.90;;;;;;5136019;27;20439;-80
2022/10/25 01:54:23;;;;;;;16.25;8.85;;;13.10;99.90;;;;;;5119510;27;20035;-80
2022/10/25 01:57:05;;;;;;;19.20;9.07;;;13.10;99.90;;;;;;5137865;27;20041;-80
2022/10/25 01:59:42;;;;;;;15.25;8.32;;;13.10;99.90;;;;;;5138104;27;20046;-80
2022/10/25 02:02:27;;;;;;;17.92;8.98;;;13.20;99.90;;;;;;5155235;27;20048;-80
2022/10/25 02:05:17;;;;;;;14.63;8.60;;;13.10;99.90;;;;;;5155826;27;20055;-80
2022/10/25 02:07:50;;;;;;;16.75;8.93;;;13.20;99.90;;;;;;5155465;27;20074;-80
2022/10/25 02:10:27;;;;;;;17.88;8.77;;;13.20;99.90;;;;;;5138209;27;20034;-80
2022/10/25 02:13:08;;;;;;;14.95;9.48;;;13.20;99.90;;;;;;5143997;27;20498;-80
2022/10/25 02:15:39;;;;;;;18.42;8.85;;;13.20;99.90;;;;;;5154189;27;20042;-80
2022/10/25 02:18:14;;;;;;;17.70;7.95;;;13.30;99.90;;;;;;5134963;27;20063;-80
2022/10/25 02:20:41;;;;;;;15.75;9.07;;;13.30;99.90;;;;;;5139075;27;20027;-80
2022/10/25 02:23:07;;;;;;;17.17;8.93;;;13.40;99.90;;;;;;5137448;27;20073;-80
2022/10/25 02:25:36;;;;;;;12.88;8.20;;;13.30;99.90;;;;;;5137778;27;20084;-80
2022/10/25 02:28:06;;;;;;;14.52;8.75;;;13.30;99.90;;;;;;5137355;27;20091;-80
2022/10/25 02:30:33;;;;;;;19.23;9.25;;;13.40;99.90;;;;;;5153730;27;20050;-80
2022/10/25 02:33:00;;;;;;;17.35;8.88;;;13.30;99.90;;;;;;5137568;27;20038;-80
2022/10/25 02:35:26;;;;;;;15.73;8.80;;;13.30;99.90;;;;;;5137612;27;20062;-80
2022/10/25 02:37:51;;;;;;;17.35;9.82;;;13.30;99.90;;;;;;5137480;27;20091;-80
2022/10/25 02:40:18;;;;;;;20.35;9.68;;;13.30;99.90;;;;;;5154999;27;20027;-80
2022/10/25 02:42:43;;;;;;;16.00;9.20;;;13.30;99.90;;;;;;5117075;27;20037;-80
2022/10/25 02:45:10;;;;;;;21.20;9.23;;;13.30;99.90;;;;;;5151118;27;20121;-80
2022/10/25 02:47:36;;;;;;;19.60;9.60;;;13.20;99.90;;;;;;5149116;27;20483;-80
2022/10/25 02:50:02;;;;;;;20.33;9.70;;;13.20;99.90;;;;;;5126347;27;20133;-80
2022/10/25 02:52:28;;;;;;;22.02;10.13;;;13.20;99.90;;;;;;5136782;27;20095;-80
2022/10/25 02:54:54;;;;;;;14.43;9.38;;;13.20;99.90;;;;;;5103135;27;20034;-80
2022/10/25 02:57:19;;;;;;;18.17;10.27;;;13.20;99.90;;;;;;5120007;27;20402;-80
2022/10/25 02:59:45;;;;;;;18.73;9.52;;;13.20;99.90;;;;;;5103535;27;20038;-80
2022/10/25 03:02:11;;;;;;;20.73;10.63;;;13.20;99.90;;;;;;5120419;27;20118;-80
2022/10/25 03:04:36;;;;;;;19.52;9.98;;;13.20;99.90;;;;;;5120024;27;20038;-80
2022/10/25 03:07:02;;;;;;;16.27;8.80;;;13.20;99.90;;;;;;5100742;27;20110;-80
2022/10/25 03:09:28;;;;;;;19.08;9.70;;;13.30;99.90;;;;;;5145062;27;20061;-80
2022/10/25 03:11:53;;;;;;;19.38;9.48;;;13.30;99.90;;;;;;5137022;27;20046;-80
2022/10/25 03:14:19;;;;;;;17.40;9.73;;;13.30;99.90;;;;;;5115030;27;20407;-80
2022/10/25 03:16:45;;;;;;;15.98;9.32;;;13.30;99.90;;;;;;5102661;27;20039;-80
2022/10/25 03:19:10;;;;;;;17.67;9.43;;;13.30;99.90;;;;;;5120021;27;20122;-80
2022/10/25 03:21:36;;;;;;;16.98;9.50;;;13.30;99.90;;;;;;5116712;28;20047;-80
2022/10/25 03:24:02;;;;;;;20.00;10.07;;;13.20;99.90;;;;;;5134914;27;20043;-81
2022/10/25 03:26:27;;;;;;;23.27;9.95;;;13.20;99.90;;;;;;5135368;27;20062;-80
2022/10/25 03:28:53;;;;;;;22.33;9.55;;;13.30;99.90;;;;;;5115787;27;20570;-80
2022/10/25 03:31:21;;;;;;;19.27;9.68;;;13.30;99.90;;;;;;5153666;27;20046;-80
2022/10/25 03:33:47;;;;;;;17.17;9.52;;;13.20;99.90;;;;;;5119549;27;20126;-80
2022/10/25 03:36:13;;;;;;;21.42;10.10;;;13.20;99.90;;;;;;5137053;27;20489;-80
2022/10/25 03:38:39;;;;;;;17.15;9.60;;;13.20;99.90;;;;;;5136662;27;20038;-80
2022/10/25 03:41:04;;;;;;;17.88;9.57;;;13.20;99.90;;;;;;5119792;27;20066;-80
2022/10/25 03:43:30;;;;;;;20.35;10.43;;;13.20;99.90;;;;;;5118174;27;20038;-80
2022/10/25 03:45:56;;;;;;;21.25;9.85;;;13.20;99.90;;;;;;5135940;27;20039;-80
2022/10/25 03:48:21;;;;;;;17.52;9.80;;;13.20;99.90;;;;;;5135668;27;20034;-80
2022/10/25 03:50:47;;;;;;;18.58;9.32;;;13.20;99.90;;;;;;5135580;27;20482;-80
2022/10/25 03:53:13;;;;;;;19.52;9.73;;;13.20;99.90;;;;;;5122426;28;20039;-80
2022/10/25 03:55:38;;;;;;;18.90;9.30;;;13.20;99.90;;;;;;5105384;27;20095;-80
2022/10/25 03:58:04;;;;;;;20.92;9.65;;;13.20;99.90;;;;;;5133123;27;20041;-80
2022/10/25 04:00:30;;;;;;;23.30;10.10;;;13.20;99.90;;;;;;5118431;27;20034;-80
2022/10/25 04:02:58;;;;;;;23.27;9.77;;;13.20;99.90;;;;;;5101087;27;20062;-80
2022/10/25 04:05:24;;;;;;;18.70;9.57;;;13.20;99.90;;;;;;5151468;27;20509;-80
2022/10/25 04:07:50;;;;;;;22.23;9.75;;;13.20;99.90;;;;;;5134905;27;20042;-81
2022/10/25 04:10:18;;;;;;;20.08;9.20;;;13.30;99.90;;;;;;5152270;27;20498;-81
2022/10/25 04:12:44;;;;;;;19.02;9.23;;;13.30;99.90;;;;;;5114249;28;20051;-81
2022/10/25 04:15:10;;;;;;;22.92;9.77;;;13.30;99.90;;;;;;5147029;27;20123;-80
2022/10/25 04:17:36;;;;;;;19.77;9.48;;;13.30;99.90;;;;;;5139141;27;20461;-80
2022/10/25 04:20:02;;;;;;;17.17;8.82;;;13.30;99.90;;;;;;5119513;27;20372;-81
2022/10/25 04:22:27;;;;;;;23.52;9.32;;;13.30;99.90;;;;;;5133566;27;20478;-81
2022/10/25 04:24:53;;;;;;;16.73;8.82;;;13.20;99.90;;;;;;5139188;27;20039;-81
2022/10/25 04:27:18;;;;;;;20.40;9.45;;;13.20;99.90;;;;;;5120015;27;20474;-81
2022/10/25 04:29:44;;;;;;;20.08;9.57;;;13.20;99.90;;;;;;5121944;27;20456;-80
2022/10/25 04:32:10;;;;;;;18.50;7.88;;;13.20;99.90;;;;;;5155173;27;20039;-80
2022/10/25 04:34:36;;;;;;;19.88;8.55;;;13.20;99.90;;;;;;5118259;27;20066;-81
2022/10/25 04:37:02;;;;;;;22.00;8.20;;;13.20;99.90;;;;;;5112066;27;20031;-80
2022/10/25 04:39:27;;;;;;;21.25;8.18;;;13.10;99.90;;;;;;5138622;27;20027;-81
2022/10/25 04:41:53;;;;;;;17.30;7.85;;;13.10;99.90;;;;;;5121397;27;20539;-80
2022/10/25 04:44:19;;;;;;;14.85;7.65;;;13.10;99.90;;;;;;5122583;27;20042;-80
2022/10/25 04:46:44;;;;;;;18.63;7.68;;;13.00;99.90;;;;;;5123039;27;20039;-81
2022/10/25 04:49:12;;;;;;;17.00;8.25;;;13.00;99.90;;;;;;5105924;27;20039;-80
2022/10/25 04:51:38;;;;;;;20.63;7.85;;;13.00;99.90;;;;;;5140040;27;20038;-80
2022/10/25 04:54:04;;;;;;;18.95;7.47;;;13.00;99.90;;;;;;5154543;27;20038;-80
2022/10/25 04:56:30;;;;;;;20.63;7.38;;;13.00;99.90;;;;;;5118975;27;20471;-80
2022/10/25 04:58:57;;;;;;;14.52;7.20;;;13.00;99.90;;;;;;5128120;27;20030;-81
2022/10/25 05:01:23;;;;;;;15.07;7.50;;;13.00;99.90;;;;;;5118364;27;20125;-80
2022/10/25 05:03:49;;;;;;;21.80;6.90;;;13.00;99.90;;;;;;5140191;27;20094;-79
2022/10/25 05:06:19;;;;;;;11.38;6.45;;;13.00;99.90;;;;;;5133359;27;20485;-80
2022/10/25 05:08:48;;;;;;;23.63;7.35;;;13.00;99.90;;;;;;5146439;27;20038;-79
2022/10/25 05:11:15;;;;;;;19.98;6.93;;;13.00;99.90;;;;;;5139189;27;20042;-80
2022/10/25 05:13:43;;;;;;;17.48;6.85;;;13.00;99.90;;;;;;5138996;27;20107;-80
2022/10/25 05:16:15;;;;;;;17.15;6.70;;;13.00;99.90;;;;;;5139350;27;20038;-80
2022/10/25 05:18:41;;;;;;;18.58;7.30;;;13.00;99.90;;;;;;5139307;27;20031;-81
2022/10/25 05:21:09;;;;;;;17.70;6.72;;;13.00;99.90;;;;;;5121611;27;20039;-80
2022/10/25 05:23:34;;;;;;;18.00;8.02;;;13.00;99.90;;;;;;5138445;27;20038;-81
2022/10/25 05:26:07;;;;;;;22.45;7.50;;;13.00;99.90;;;;;;5120603;27;20109;-80
2022/10/25 05:28:34;;;;;;;19.65;6.90;;;13.00;99.90;;;;;;5155795;27;20565;-82
2022/10/25 05:31:04;;;;;;;16.85;7.63;;;13.00;99.90;;;;;;5128617;27;20042;-80
2022/10/25 05:33:31;;;;;;;19.23;7.05;;;13.00;99.90;;;;;;5149353;27;20605;-80
2022/10/25 05:35:59;;;;;;;14.80;7.28;;;12.90;99.90;;;;;;5120976;27;20122;-80
2022/10/25 05:38:25;;;;;;;19.10;7.68;;;12.90;99.90;;;;;;5121238;27;20039;-81
2022/10/25 05:40:52;;;;;;;18.20;7.70;;;12.90;99.90;;;;;;5109517;27;20038;-80
2022/10/25 05:43:18;;;;;;;18.55;8.00;;;12.80;99.90;;;;;;5138093;27;20062;-81
2022/10/25 05:45:43;;;;;;;16.13;7.63;;;12.80;99.90;;;;;;5100703;27;20497;-81
2022/10/25 05:48:09;;;;;;;16.60;8.25;;;12.90;99.90;;;;;;5101114;27;20062;-80
2022/10/25 05:50:35;;;;;;;17.58;8.48;;;12.80;99.90;;;;;;5109348;27;20030;-81
2022/10/25 05:53:00;;;;;;;20.92;9.18;;;12.80;99.90;;;;;;5104842;27;20133;-80
2022/10/25 05:55:26;;;;;;;18.52;8.35;;;12.90;99.90;;;;;;5124837;27;20447;-80
2022/10/25 05:57:52;;;;;;;20.33;8.93;;;12.80;99.90;;;;;;5121540;27;20466;-80
2022/10/25 06:00:17;;;;;;;19.38;8.48;;;12.80;99.90;;;;;;5120930;27;20605;-80
2022/10/25 06:02:43;;;;;;;21.63;9.27;;;12.80;99.90;;;;;;5137975;27;20086;-81
2022/10/25 06:05:09;;;;;;;22.98;8.32;;;12.80;99.90;;;;;;5134640;27;20039;-80
2022/10/25 06:07:34;;;;;;;24.65;9.63;;;12.90;99.90;;;;;;5103010;27;20157;-80
2022/10/25 06:10:00;;;;;;;22.83;8.82;;;12.90;99.90;;;;;;5120192;27;20038;-81
2022/10/25 06:12:26;;;;;;;33.40;10.13;;;12.90;99.90;;;;;;5138115;27;20070;-80
2022/10/25 06:14:51;;;;;;;24.65;8.73;;;12.90;99.90;;;;;;5121183;27;20074;-80
2022/10/25 06:17:17;;;;;;;21.17;8.68;;;13.00;99.90;;;;;;5138208;27;20113;-81
2022/10/25 06:19:43;;;;;;;23.58;8.20;;;13.00;99.90;;;;;;5103971;27;20371;-81
2022/10/25 06:22:08;;;;;;;25.20;9.32;;;13.00;99.90;;;;;;5119997;27;20050;-84
2022/10/25 06:24:34;;;;;;;22.83;8.73;;;13.00;99.90;;;;;;5102854;27;20038;-81
2022/10/25 06:27:00;;;;;;;24.08;9.20;;;13.00;99.90;;;;;;5111527;27;20092;-81
2022/10/25 06:29:25;;;;;;;20.42;9.07;;;13.00;99.90;;;;;;5100481;27;20046;-81
2022/10/25 06:31:51;;;;;;;21.92;8.88;;;13.00;99.90;;;;;;5114645;27;20039;-81
2022/10/25 06:34:17;;;;;;;20.98;8.93;;;13.10;99.90;;;;;;5099282;27;20117;-81
2022/10/25 06:36:42;;;;;;;22.60;8.93;;;13.10;99.90;;;;;;5100992;27;20050;-80
2022/10/25 06:39:08;;;;;;;17.65;8.68;;;13.10;99.90;;;;;;5136342;27;20038;-80
2022/10/25 06:41:37;;;;;;;25.27;9.15;;;13.00;99.90;;;;;;5101164;27;20052;-81
2022/10/25 06:44:04;;;;;;;17.48;8.40;;;13.10;99.90;;;;;;5114824;27;20035;-79
2022/10/25 06:46:31;;;;;;;26.20;9.45;;;13.10;99.90;;;;;;5120673;27;20134;-80
2022/10/25 06:48:58;;;;;;;20.85;9.48;;;13.10;99.90;;;;;;5151942;27;20050;-80
2022/10/25 06:51:27;;;;;;;22.05;8.93;;;13.10;99.90;;;;;;5120253;27;20038;-79
2022/10/25 06:53:58;;;;;;;30.60;10.27;;;13.10;99.90;;;;;;5154976;27;20378;-79
2022/10/25 06:56:25;;;;;;;17.70;9.25;;;13.10;99.90;;;;;;5136996;27;20091;-79
2022/10/25 06:58:51;;;;;;;20.90;8.65;;;13.10;99.90;;;;;;5120191;27;20463;-80
2022/10/25 07:01:18;;;;;;;22.17;9.70;;;13.10;99.90;;;;;;5137052;27;20034;-80
2022/10/25 07:03:45;;;;;;;19.70;9.98;;;13.10;99.90;;;;;;5121967;27;20034;-80
2022/10/25 07:06:16;;;;;;;26.55;10.10;;;13.10;99.90;;;;;;5103555;27;20145;-81
2022/10/25 07:08:44;;;;;;;24.73;10.82;;;13.10;99.90;;;;;;5136336;27;20494;-79
2022/10/25 07:11:15;;;;;;;28.42;11.27;;;13.20;99.90;;;;;;5136833;27;20043;-80
2022/10/25 07:13:41;;;;;;;26.52;10.75;;;13.20;99.90;;;;;;5136469;27;20097;-80
2022/10/25 07:16:09;;;;;;;25.60;10.07;;;13.20;99.90;;;;;;5110414;27;20074;-80
2022/10/25 07:18:35;;;;;;;22.67;10.13;;;13.20;99.90;;;;;;5153668;27;20497;-80
2022/10/25 07:21:14;;;;;;;26.95;10.75;;;13.20;99.90;;;;;;5136010;27;20038;-81
2022/10/25 07:23:43;;;;;;;24.15;11.82;;;13.20;99.90;;;;;;5137028;27;20038;-80
2022/10/25 07:26:19;;;;;;;25.15;11.55;;;13.20;99.90;;;;;;5136624;27;20042;-79
2022/10/25 07:28:47;;;;;;;23.88;11.40;;;13.30;99.90;;;;;;5127459;27;20062;-80
2022/10/25 07:31:15;;;;;;;24.02;10.85;;;13.30;99.90;;;;;;5123828;27;20110;-79
2022/10/25 07:33:41;;;;;;;27.75;11.68;;;13.30;99.90;;;;;;5136605;27;20549;-79
2022/10/25 07:36:07;;;;;;;24.13;10.85;;;13.40;99.90;;;;;;5116352;27;20428;-80
2022/10/25 07:38:33;;;;;;;21.75;11.35;;;13.40;99.90;;;;;;5127647;27;20395;-80
2022/10/25 07:40:59;;;;;;;29.73;12.07;;;13.40;99.90;;;;;;5136648;27;20030;-80
2022/10/25 07:43:26;;;;;;;24.98;11.10;;;13.50;99.90;;;;;;5137426;27;20083;-80
2022/10/25 07:45:52;;;;;;;21.52;11.68;;;13.50;99.90;;;;;;5136509;27;20039;-79
2022/10/25 07:48:18;;;;;;;26.20;11.02;;;13.60;99.90;;;;;;5152885;27;20070;-79
2022/10/25 07:50:44;;;;;;;23.10;12.00;;;14.20;99.90;;;;;;5103750;27;20034;-80
2022/10/25 07:53:10;;;;;;;22.23;11.40;;;13.70;99.90;;;;;;5123783;27;20035;-80
2022/10/25 07:55:36;;;;;;;22.27;10.35;;;13.70;99.90;;;;;;5123751;27;20042;-80
2022/10/25 07:58:04;;;;;;;26.38;11.25;;;13.70;99.90;;;;;;5123684;27;20045;-80
2022/10/25 08:00:29;;;;;;;23.52;11.23;;;13.80;99.90;;;;;;5157700;27;20035;-80
2022/10/25 08:02:55;;;;;;;18.90;10.95;;;13.80;99.90;;;;;;5123495;27;20111;-80
2022/10/25 08:05:22;;;;;;;22.92;11.23;;;13.90;99.90;;;;;;5124354;27;20047;-80
2022/10/25 08:07:49;;;;;;;20.77;11.73;;;13.90;99.90;;;;;;5140607;27;20079;-79
2022/10/25 08:10:15;;;;;;;23.38;11.35;;;13.90;99.90;;;;;;5123816;27;20092;-79
2022/10/25 08:12:40;;;;;;;15.32;10.27;;;13.90;99.90;;;;;;5140355;27;20055;-80
2022/10/25 08:15:06;;;;;;;22.70;10.73;;;13.90;99.90;;;;;;5105958;27;20043;-80
2022/10/25 08:17:32;;;;;;;18.63;10.48;;;13.90;99.90;;;;;;5119379;27;20131;-80
2022/10/25 08:19:59;;;;;;;25.33;11.20;;;14.00;99.90;;;;;;5139065;27;20046;-80
2022/10/25 08:22:24;;;;;;;22.33;10.90;;;14.00;99.90;;;;;;5119553;27;20483;-80
2022/10/25 08:24:50;;;;;;;23.30;10.35;;;14.00;99.90;;;;;;5148669;27;20126;-80
2022/10/25 08:27:15;;;;;;;22.05;10.80;;;14.10;99.90;;;;;;5118096;27;20118;-80
2022/10/25 08:29:42;;;;;;;21.85;9.93;;;14.10;99.90;;;;;;5119696;27;20043;-80
2022/10/25 08:32:08;;;;;;;18.83;10.18;;;14.20;99.90;;;;;;5127054;27;20035;-81
2022/10/25 08:34:33;;;;;;;24.23;10.52;;;14.20;99.90;;;;;;5139774;27;20042;-81
2022/10/25 08:36:59;;;;;;;19.13;10.35;;;14.30;99.90;;;;;;5140589;27;20037;-80
2022/10/25 08:39:24;;;;;;;18.45;10.43;;;14.30;99.90;;;;;;5122501;27;20068;-80
2022/10/25 08:41:54;;;;;;;17.98;9.32;;;14.30;99.90;;;;;;5110584;27;20084;-79
2022/10/25 08:44:20;;;;;;;17.17;9.32;;;14.30;99.90;;;;;;5134627;27;20039;-79
2022/10/25 08:47:24;;;;;;;23.65;9.60;;;14.30;99.90;;;;;;5138843;27;20091;-79
2022/10/25 08:50:05;;;;;;;18.50;9.60;;;14.40;99.90;;;;;;5126030;27;20054;-79
2022/10/25 08:52:44;;;;;;;22.38;9.55;;;14.40;99.90;;;;;;5137823;27;20050;-79
2022/10/25 08:55:25;;;;;;;16.88;9.35;;;14.40;99.90;;;;;;5156588;27;20042;-79
2022/10/25 08:57:52;;;;;;;19.70;9.43;;;14.50;99.90;;;;;;5138281;27;20038;-80
2022/10/25 09:00:21;;;;;;;19.05;9.00;;;14.50;99.90;;;;;;5137135;27;20069;-80
2022/10/25 09:03:00;;;;;;;18.77;8.63;;;14.50;99.90;;;;;;5138136;27;20073;-80
2022/10/25 09:05:39;;;;;;;18.83;9.40;;;14.60;99.90;;;;;;5138571;27;20035;-80
2022/10/25 09:08:07;;;;;;;19.00;8.90;;;14.60;99.90;;;;;;5154662;27;20038;-80
2022/10/25 09:11:05;;;;;;;14.07;7.78;;;14.60;99.90;;;;;;5152115;27;20043;-80
2022/10/25 09:13:49;;;;;;;17.27;7.90;;;14.80;99.90;;;;;;5120923;27;20086;-80
2022/10/25 09:16:20;;;;;;;18.15;7.90;;;14.90;99.90;;;;;;5137294;27;20129;-80
2022/10/25 09:18:56;;;;;;;19.10;7.63;;;14.90;99.90;;;;;;5144597;27;20431;-80
2022/10/25 09:21:28;;;;;;;18.33;8.02;;;14.90;99.90;;;;;;5129335;27;20031;-81
2022/10/25 09:24:32;;;;;;;22.85;8.27;;;14.90;99.90;;;;;;5145665;27;20238;-80
2022/10/25 09:27:07;;;;;;;13.98;7.80;;;14.90;99.90;;;;;;5144000;27;20054;-80
2022/10/25 09:29:38;;;;;;;15.77;6.88;;;14.90;99.90;;;;;;5139679;27;20054;-81
2022/10/25 09:32:20;;;;;;;14.07;7.47;;;14.90;99.90;;;;;;5138605;27;20046;-80
2022/10/25 09:34:46;;;;;;;12.45;6.80;;;14.90;99.90;;;;;;5139068;27;20436;-80
2022/10/25 09:37:41;;;;;;;18.60;6.97;;;14.90;99.90;;;;;;5116210;27;20084;-81
2022/10/25 09:40:14;;;;;;;13.15;6.07;;;14.90;99.90;;;;;;5132826;27;20474;-80
2022/10/25 09:42:49;;;;;;;12.57;6.68;;;15.00;99.90;;;;;;5136236;27;20142;-79
2022/10/25 09:45:32;;;;;;;14.52;6.30;;;15.00;99.90;;;;;;5154828;27;20038;-80
2022/10/25 09:47:58;;;;;;;16.00;6.35;;;15.00;99.90;;;;;;5137722;27;20030;-80
2022/10/25 09:50:39;;;;;;;15.70;6.55;;;15.10;99.90;;;;;;5138050;27;20042;-79
2022/10/25 09:53:10;;;;;;;18.50;7.13;;;15.10;99.90;;;;;;5133016;27;20095;-80
2022/10/25 09:55:39;;;;;;;16.00;7.10;;;15.10;99.90;;;;;;5142285;27;20047;-80
2022/10/25 09:58:07;;;;;;;12.90;6.53;;;15.10;99.90;;;;;;5155668;27;20038;-81
2022/10/25 10:00:38;;;;;;;12.23;6.28;;;15.10;99.90;;;;;;5152310;27;20524;-81
2022/10/25 10:03:03;;;;;;;13.30;5.68;;;15.10;99.90;;;;;;5117937;27;20034;-80
2022/10/25 10:05:30;;;;;;;13.80;6.68;;;15.00;99.90;;;;;;5132628;27;20144;-81
2022/10/25 10:07:56;;;;;;;14.35;6.60;;;15.00;99.90;;;;;;5138906;27;20043;-81
2022/10/25 10:10:25;;;;;;;13.85;6.70;;;15.00;99.90;;;;;;5139155;27;20042;-81
2022/10/25 10:13:12;;;;;;;14.43;6.63;;;15.00;99.90;;;;;;5155004;27;20554;-81
2022/10/25 10:16:01;;;;;;;14.25;6.68;;;15.00;99.90;;;;;;5155562;27;20499;-81
2022/10/25 10:18:31;;;;;;;13.60;7.03;;;15.10;99.90;;;;;;5155896;27;20034;-81
2022/10/25 10:21:19;;;;;;;11.38;6.28;;;15.20;99.90;;;;;;5105344;27;20449;-81
2022/10/25 10:24:00;;;;;;;12.60;6.05;;;15.40;99.90;;;;;;5138631;27;20183;-81
2022/10/25 10:26:43;;;;;;;11.82;6.57;;;15.40;99.90;;;;;;5138163;27;20042;-81
2022/10/25 10:29:12;;;;;;;12.23;6.40;;;15.40;99.90;;;;;;5138339;27;20042;-80
2022/10/25 10:31:51;;;;;;;14.73;6.30;;;15.40;99.90;;;;;;5120914;27;20042;-81
2022/10/25 10:34:37;;;;;;;12.30;6.35;;;15.40;99.90;;;;;;5137926;27;20122;-81
2022/10/25 10:37:11;;;;;;;13.90;5.95;;;15.40;99.90;;;;;;5138288;27;20069;-81
2022/10/25 10:39:49;;;;;;;13.23;5.78;;;15.40;99.90;;;;;;5156117;27;20113;-81
2022/10/25 10:42:21;;;;;;;14.25;5.90;;;15.40;99.90;;;;;;5138565;27;20035;-79
2022/10/25 10:45:08;;;;;;;15.40;6.28;;;15.40;99.90;;;;;;5137954;27;20042;-82
2022/10/25 10:47:47;;;;;;;10.40;4.70;;;15.40;99.90;;;;;;5137688;27;20054;-80
2022/10/25 10:50:24;;;;;;;13.10;5.95;;;15.40;99.90;;;;;;5138481;27;20039;-80
2022/10/25 10:53:28;;;;;;;10.93;5.30;;;15.50;99.90;;;;;;5155580;27;20470;-82
2022/10/25 10:55:56;;;;;;;12.05;4.95;;;15.50;99.90;;;;;;5155485;27;20047;-80
2022/10/25 10:58:25;;;;;;;13.43;5.45;;;15.60;99.90;;;;;;5137877;27;20035;-80
2022/10/25 11:01:27;;;;;;;12.57;5.35;;;15.60;99.90;;;;;;5137257;27;20060;-80
2022/10/25 11:03:56;;;;;;;11.23;5.53;;;15.70;99.90;;;;;;5131184;27;20049;-81
2022/10/25 11:06:31;;;;;;;14.48;5.53;;;15.60;99.90;;;;;;5155286;27;20046;-80
2022/10/25 11:09:18;;;;;;;12.60;4.95;;;15.70;99.90;;;;;;5137513;27;20046;-81
2022/10/25 11:12:01;;;;;;;16.40;5.03;;;15.70;99.90;;;;;;5138065;27;20038;-80
2022/10/25 11:14:27;;;;;;;10.25;4.55;;;15.70;99.90;;;;;;5136869;27;20053;-80
2022/10/25 11:17:25;;;;;;;9.00;4.50;;;15.80;99.90;;;;;;5099975;27;20060;-80
2022/10/25 11:20:06;;;;;;;8.48;4.82;;;15.80;99.90;;;;;;5104238;27;20043;-80
2022/10/25 11:22:42;;;;;;;9.77;4.30;;;15.80;99.90;;;;;;5134109;27;20039;-81
2022/10/25 11:25:25;;;;;;;11.80;4.60;;;15.80;99.90;;;;;;5116711;27;20089;-81
2022/10/25 11:28:30;;;;;;;11.63;4.35;;;15.90;99.90;;;;;;5117124;27;20035;-80
2022/10/25 11:31:14;;;;;;;10.00;4.18;;;15.90;99.90;;;;;;5117995;27;20398;-80
2022/10/25 11:33:50;;;;;;;6.78;4.25;;;15.90;99.90;;;;;;5136050;27;20039;-81
2022/10/25 11:36:34;;;;;;;;;;;15.90;99.90;;;;;;5138058;27;20038;-80
2022/10/25 11:39:23;;;;;;;15.85;4.45;;;15.90;99.90;;;;;;5137631;27;19915;-81
2022/10/25 11:41:52;;;;;;;11.48;3.70;;;15.90;99.90;;;;;;5136329;27;20034;-80
2022/10/25 11:45:00;;;;;;;9.30;3.50;;;15.90;99.90;;;;;;5130053;27;20033;-80
2022/10/25 11:47:39;;;;;;;11.60;3.65;;;16.00;99.90;;;;;;5128374;27;20053;-81
2022/10/25 11:50:32;;;;;;;12.63;3.80;;;16.20;99.90;;;;;;5152152;27;20039;-82
2022/10/25 11:53:20;;;;;;;9.48;3.67;;;16.30;99.90;;;;;;5150276;27;20117;-82
2022/10/25 11:55:53;;;;;;;7.78;3.90;;;16.30;99.90;;;;;;5153326;27;20077;-81
2022/10/25 11:58:27;;;;;;;11.65;4.00;;;16.30;99.90;;;;;;5152405;27;20035;-82
2022/10/25 12:01:05;;;;;;;8.80;3.60;;;16.40;99.90;;;;;;5136048;27;20483;-81
2022/10/25 12:03:34;;;;;;;11.32;3.85;;;16.30;99.90;;;;;;5136149;27;20027;-82
2022/10/25 12:06:44;;;;;;;9.00;3.63;;;16.30;99.90;;;;;;5136920;27;20085;-82
2022/10/25 12:09:37;;;;;;;8.23;3.65;;;16.40;99.90;;;;;;5105958;27;20386;-81
2022/10/25 12:12:08;;;;;;;10.20;4.45;;;16.50;99.90;;;;;;5124459;28;20584;-81
2022/10/25 12:14:39;;;;;;;10.75;4.05;;;16.50;99.90;;;;;;5116277;28;20043;-81
2022/10/25 12:17:13;;;;;;;9.00;3.53;;;16.60;99.90;;;;;;5133493;28;20043;-81
2022/10/25 12:19:45;;;;;;;11.07;3.65;;;16.60;99.90;;;;;;5138244;27;20474;-81
2022/10/25 12:22:23;;;;;;;9.55;3.95;;;16.70;99.90;;;;;;5136925;27;20062;-81
2022/10/25 12:25:00;;;;;;;10.68;3.67;;;16.70;99.90;;;;;;5136469;27;20105;-82
2022/10/25 12:27:27;;;;;;;11.32;3.88;;;16.80;99.90;;;;;;5137172;27;20042;-82
2022/10/25 12:29:59;;;;;;;9.68;3.63;;;16.80;99.90;;;;;;5136015;27;20046;-80
2022/10/25 12:32:45;;;;;;;9.82;3.50;;;16.80;99.90;;;;;;5117385;27;20486;-81
2022/10/25 12:35:21;;;;;;;11.63;3.50;;;16.80;99.90;;;;;;5136946;27;20031;-80
2022/10/25 12:37:53;;;;;;;11.32;3.80;;;16.80;99.90;;;;;;5124553;27;20565;-79
2022/10/25 12:40:22;;;;;;;11.43;3.55;;;16.70;99.90;;;;;;5138381;27;20027;-81
2022/10/25 12:43:15;;;;;;;14.05;3.53;;;16.70;99.90;;;;;;5135625;27;20034;-81
2022/10/25 12:45:49;;;;;;;13.35;3.60;;;16.80;99.90;;;;;;5141952;27;20043;-81
2022/10/25 12:48:23;;;;;;;10.02;3.33;;;16.70;99.90;;;;;;5125598;27;20035;-81
2022/10/25 12:51:11;;;;;;;8.27;3.10;;;16.80;99.90;;;;;;5152845;27;20047;-80
2022/10/25 12:53:43;;;;;;;11.18;3.63;;;16.80;99.90;;;;;;5135387;27;20103;-81
2022/10/25 12:56:12;;;;;;;7.95;2.70;;;16.90;99.90;;;;;;5137708;27;20066;-81